sensor_id;sensor_type;location;lat;lon;timestamp;P1;durP1;ratioP1;P2;durP2;ratioP2
47784;SDS011;35233;55.686;37.848;2022-12-29T00:01:33;5.15;;;3.33;;
47784;SDS011;35233;55.686;37.848;2022-12-29T00:04:00;4.78;;;3.45;;
47784;SDS011;35233;55.686;37.848;2022-12-29T00:06:26;6.00;;;3.45;;
47784;SDS011;35233;55.686;37.848;2022-12-29T00:08:52;4.90;;;3.35;;
47784;SDS011;35233;55.686;37.848;2022-12-29T00:11:18;4.50;;;3.10;;
47784;SDS011;35233;55.686;37.848;2022-12-29T00:13:53;5.50;;;3.35;;
47784;SDS011;35233;55.686;37.848;2022-12-29T00:16:39;6.10;;;2.90;;
47784;SDS011;35233;55.686;37.848;2022-12-29T00:19:06;4.28;;;2.80;;
47784;SDS011;35233;55.686;37.848;2022-12-29T00:21:52;5.35;;;2.78;;
47784;SDS011;35233;55.686;37.848;2022-12-29T00:24:36;6.88;;;2.80;;
47784;SDS011;35233;55.686;37.848;2022-12-29T00:29:45;5.53;;;2.65;;
47784;SDS011;35233;55.686;37.848;2022-12-29T00:32:29;5.45;;;3.10;;
47784;SDS011;35233;55.686;37.848;2022-12-29T00:35:15;3.78;;;2.63;;
47784;SDS011;35233;55.686;37.848;2022-12-29T00:37:53;4.30;;;3.00;;
47784;SDS011;35233;55.686;37.848;2022-12-29T00:40:39;4.28;;;2.80;;
47784;SDS011;35233;55.686;37.848;2022-12-29T00:43:24;3.50;;;2.50;;
47784;SDS011;35233;55.686;37.848;2022-12-29T00:46:08;4.60;;;2.67;;
47784;SDS011;35233;55.686;37.848;2022-12-29T00:48:33;4.85;;;2.72;;
47784;SDS011;35233;55.686;37.848;2022-12-29T00:51:17;4.55;;;2.85;;
47784;SDS011;35233;55.686;37.848;2022-12-29T00:53:42;5.50;;;2.80;;
47784;SDS011;35233;55.686;37.848;2022-12-29T00:56:08;5.13;;;2.35;;
47784;SDS011;35233;55.686;37.848;2022-12-29T00:58:33;3.92;;;2.45;;
47784;SDS011;35233;55.686;37.848;2022-12-29T01:01:06;4.68;;;2.53;;
47784;SDS011;35233;55.686;37.848;2022-12-29T01:03:34;3.90;;;2.45;;
47784;SDS011;35233;55.686;37.848;2022-12-29T01:06:01;3.92;;;2.20;;
47784;SDS011;35233;55.686;37.848;2022-12-29T01:08:28;3.10;;;2.28;;
47784;SDS011;35233;55.686;37.848;2022-12-29T01:11:00;4.85;;;2.35;;
47784;SDS011;35233;55.686;37.848;2022-12-29T01:13:30;3.33;;;2.10;;
47784;SDS011;35233;55.686;37.848;2022-12-29T01:15:56;4.43;;;2.25;;
47784;SDS011;35233;55.686;37.848;2022-12-29T01:18:23;3.92;;;2.50;;
47784;SDS011;35233;55.686;37.848;2022-12-29T01:20:49;6.15;;;2.30;;
47784;SDS011;35233;55.686;37.848;2022-12-29T01:23:22;3.58;;;2.20;;
47784;SDS011;35233;55.686;37.848;2022-12-29T01:25:48;6.03;;;2.38;;
47784;SDS011;35233;55.686;37.848;2022-12-29T01:28:14;6.68;;;2.28;;
47784;SDS011;35233;55.686;37.848;2022-12-29T01:30:39;3.13;;;2.00;;
47784;SDS011;35233;55.686;37.848;2022-12-29T01:33:05;4.35;;;2.08;;
47784;SDS011;35233;55.686;37.848;2022-12-29T01:35:30;3.28;;;2.10;;
47784;SDS011;35233;55.686;37.848;2022-12-29T01:37:56;3.17;;;2.05;;
47784;SDS011;35233;55.686;37.848;2022-12-29T01:40:21;4.10;;;1.90;;
47784;SDS011;35233;55.686;37.848;2022-12-29T01:42:47;3.13;;;2.05;;
47784;SDS011;35233;55.686;37.848;2022-12-29T01:45:13;4.05;;;2.33;;
47784;SDS011;35233;55.686;37.848;2022-12-29T01:50:29;2.72;;;2.05;;
47784;SDS011;35233;55.686;37.848;2022-12-29T01:53:07;4.70;;;2.05;;
47784;SDS011;35233;55.686;37.848;2022-12-29T01:55:41;2.10;;;1.70;;
47784;SDS011;35233;55.686;37.848;2022-12-29T01:58:09;3.97;;;1.80;;
47784;SDS011;35233;55.686;37.848;2022-12-29T02:00:38;4.40;;;2.08;;
47784;SDS011;35233;55.686;37.848;2022-12-29T02:03:04;3.30;;;1.90;;
47784;SDS011;35233;55.686;37.848;2022-12-29T02:06:33;4.03;;;1.83;;
47784;SDS011;35233;55.686;37.848;2022-12-29T02:08:36;5.07;;;2.10;;
47784;SDS011;35233;55.686;37.848;2022-12-29T02:11:04;6.10;;;1.95;;
47784;SDS011;35233;55.686;37.848;2022-12-29T02:13:30;3.03;;;2.00;;
47784;SDS011;35233;55.686;37.848;2022-12-29T02:18:37;3.85;;;2.00;;
47784;SDS011;35233;55.686;37.848;2022-12-29T02:21:21;3.42;;;2.40;;
47784;SDS011;35233;55.686;37.848;2022-12-29T02:29:40;2.55;;;1.83;;
47784;SDS011;35233;55.686;37.848;2022-12-29T02:32:50;3.50;;;1.80;;
47784;SDS011;35233;55.686;37.848;2022-12-29T02:38:03;2.85;;;1.92;;
47784;SDS011;35233;55.686;37.848;2022-12-29T02:43:26;2.08;;;1.58;;
47784;SDS011;35233;55.686;37.848;2022-12-29T02:48:55;3.60;;;1.80;;
47784;SDS011;35233;55.686;37.848;2022-12-29T02:51:39;2.80;;;2.03;;
47784;SDS011;35233;55.686;37.848;2022-12-29T02:54:18;2.63;;;1.73;;
47784;SDS011;35233;55.686;37.848;2022-12-29T02:57:03;4.85;;;2.00;;
47784;SDS011;35233;55.686;37.848;2022-12-29T02:59:30;3.10;;;1.75;;
47784;SDS011;35233;55.686;37.848;2022-12-29T03:02:04;3.88;;;1.58;;
47784;SDS011;35233;55.686;37.848;2022-12-29T03:15:42;3.17;;;1.67;;
47784;SDS011;35233;55.686;37.848;2022-12-29T03:18:41;3.42;;;2.00;;
47784;SDS011;35233;55.686;37.848;2022-12-29T03:21:35;2.83;;;1.98;;
47784;SDS011;35233;55.686;37.848;2022-12-29T03:24:24;3.28;;;1.95;;
47784;SDS011;35233;55.686;37.848;2022-12-29T03:26:55;3.22;;;1.80;;
47784;SDS011;35233;55.686;37.848;2022-12-29T03:29:23;3.58;;;1.80;;
47784;SDS011;35233;55.686;37.848;2022-12-29T03:31:51;3.42;;;2.05;;
47784;SDS011;35233;55.686;37.848;2022-12-29T03:34:19;3.65;;;2.00;;
47784;SDS011;35233;55.686;37.848;2022-12-29T03:36:48;4.13;;;2.00;;
47784;SDS011;35233;55.686;37.848;2022-12-29T03:39:20;3.75;;;1.90;;
47784;SDS011;35233;55.686;37.848;2022-12-29T03:41:48;3.95;;;1.90;;
47784;SDS011;35233;55.686;37.848;2022-12-29T03:44:16;3.85;;;1.92;;
47784;SDS011;35233;55.686;37.848;2022-12-29T03:46:42;2.58;;;1.70;;
47784;SDS011;35233;55.686;37.848;2022-12-29T03:49:07;3.42;;;2.00;;
47784;SDS011;35233;55.686;37.848;2022-12-29T03:51:33;2.13;;;1.73;;
47784;SDS011;35233;55.686;37.848;2022-12-29T03:53:58;4.13;;;1.92;;
47784;SDS011;35233;55.686;37.848;2022-12-29T03:56:24;4.10;;;2.05;;
47784;SDS011;35233;55.686;37.848;2022-12-29T03:58:49;2.35;;;1.75;;
47784;SDS011;35233;55.686;37.848;2022-12-29T04:01:15;3.92;;;1.85;;
47784;SDS011;35233;55.686;37.848;2022-12-29T04:03:41;2.88;;;1.83;;
47784;SDS011;35233;55.686;37.848;2022-12-29T04:06:06;5.07;;;2.10;;
47784;SDS011;35233;55.686;37.848;2022-12-29T04:08:32;3.58;;;1.90;;
47784;SDS011;35233;55.686;37.848;2022-12-29T04:10:58;5.13;;;1.75;;
47784;SDS011;35233;55.686;37.848;2022-12-29T04:13:23;2.20;;;1.70;;
47784;SDS011;35233;55.686;37.848;2022-12-29T04:15:49;3.55;;;2.08;;
47784;SDS011;35233;55.686;37.848;2022-12-29T04:18:14;3.88;;;2.10;;
47784;SDS011;35233;55.686;37.848;2022-12-29T04:20:41;4.28;;;2.13;;
47784;SDS011;35233;55.686;37.848;2022-12-29T04:23:25;4.53;;;2.00;;
47784;SDS011;35233;55.686;37.848;2022-12-29T04:25:51;3.88;;;2.17;;
47784;SDS011;35233;55.686;37.848;2022-12-29T04:28:20;4.68;;;2.40;;
47784;SDS011;35233;55.686;37.848;2022-12-29T04:30:45;3.67;;;2.10;;
47784;SDS011;35233;55.686;37.848;2022-12-29T04:33:11;3.30;;;2.42;;
47784;SDS011;35233;55.686;37.848;2022-12-29T04:35:37;6.78;;;3.47;;
47784;SDS011;35233;55.686;37.848;2022-12-29T04:38:03;9.13;;;3.70;;
47784;SDS011;35233;55.686;37.848;2022-12-29T04:40:29;6.72;;;3.78;;
47784;SDS011;35233;55.686;37.848;2022-12-29T04:42:55;5.88;;;3.80;;
47784;SDS011;35233;55.686;37.848;2022-12-29T04:45:21;6.07;;;3.75;;
47784;SDS011;35233;55.686;37.848;2022-12-29T04:47:46;5.80;;;3.85;;
47784;SDS011;35233;55.686;37.848;2022-12-29T04:50:12;10.48;;;4.15;;
47784;SDS011;35233;55.686;37.848;2022-12-29T04:52:37;6.38;;;4.05;;
47784;SDS011;35233;55.686;37.848;2022-12-29T04:55:03;7.10;;;4.35;;
47784;SDS011;35233;55.686;37.848;2022-12-29T04:57:30;7.53;;;4.10;;
47784;SDS011;35233;55.686;37.848;2022-12-29T04:59:56;5.97;;;3.83;;
47784;SDS011;35233;55.686;37.848;2022-12-29T05:02:21;5.80;;;3.55;;
47784;SDS011;35233;55.686;37.848;2022-12-29T05:04:47;9.32;;;3.70;;
47784;SDS011;35233;55.686;37.848;2022-12-29T05:07:13;6.32;;;3.67;;
47784;SDS011;35233;55.686;37.848;2022-12-29T05:09:38;6.70;;;3.63;;
47784;SDS011;35233;55.686;37.848;2022-12-29T05:12:04;5.20;;;3.35;;
47784;SDS011;35233;55.686;37.848;2022-12-29T05:14:30;6.78;;;3.30;;
47784;SDS011;35233;55.686;37.848;2022-12-29T05:16:56;6.40;;;3.50;;
47784;SDS011;35233;55.686;37.848;2022-12-29T05:19:21;6.75;;;3.25;;
47784;SDS011;35233;55.686;37.848;2022-12-29T05:21:47;7.82;;;3.75;;
47784;SDS011;35233;55.686;37.848;2022-12-29T05:24:12;7.80;;;3.35;;
47784;SDS011;35233;55.686;37.848;2022-12-29T05:26:38;8.18;;;3.45;;
47784;SDS011;35233;55.686;37.848;2022-12-29T05:29:04;5.32;;;3.28;;
47784;SDS011;35233;55.686;37.848;2022-12-29T05:31:30;7.43;;;3.80;;
47784;SDS011;35233;55.686;37.848;2022-12-29T05:33:55;5.88;;;3.70;;
47784;SDS011;35233;55.686;37.848;2022-12-29T05:36:21;8.18;;;4.63;;
47784;SDS011;35233;55.686;37.848;2022-12-29T05:39:00;8.70;;;5.10;;
47784;SDS011;35233;55.686;37.848;2022-12-29T05:41:26;8.10;;;5.25;;
47784;SDS011;35233;55.686;37.848;2022-12-29T05:43:51;10.38;;;5.93;;
47784;SDS011;35233;55.686;37.848;2022-12-29T05:46:17;11.45;;;6.53;;
47784;SDS011;35233;55.686;37.848;2022-12-29T05:48:42;10.98;;;6.75;;
47784;SDS011;35233;55.686;37.848;2022-12-29T05:51:08;12.02;;;7.68;;
47784;SDS011;35233;55.686;37.848;2022-12-29T05:53:34;11.77;;;8.00;;
47784;SDS011;35233;55.686;37.848;2022-12-29T05:55:59;14.30;;;9.25;;
47784;SDS011;35233;55.686;37.848;2022-12-29T05:58:25;15.82;;;9.93;;
47784;SDS011;35233;55.686;37.848;2022-12-29T06:00:53;16.45;;;11.23;;
47784;SDS011;35233;55.686;37.848;2022-12-29T06:03:19;17.02;;;11.50;;
47784;SDS011;35233;55.686;37.848;2022-12-29T06:05:47;17.77;;;11.65;;
47784;SDS011;35233;55.686;37.848;2022-12-29T06:08:12;17.73;;;12.73;;
47784;SDS011;35233;55.686;37.848;2022-12-29T06:10:38;22.17;;;12.68;;
47784;SDS011;35233;55.686;37.848;2022-12-29T06:13:03;17.25;;;12.07;;
47784;SDS011;35233;55.686;37.848;2022-12-29T06:15:31;18.83;;;13.32;;
47784;SDS011;35233;55.686;37.848;2022-12-29T06:17:57;17.60;;;13.15;;
47784;SDS011;35233;55.686;37.848;2022-12-29T06:20:23;19.98;;;13.82;;
47784;SDS011;35233;55.686;37.848;2022-12-29T06:22:52;17.60;;;12.30;;
47784;SDS011;35233;55.686;37.848;2022-12-29T06:25:18;17.48;;;12.75;;
47784;SDS011;35233;55.686;37.848;2022-12-29T06:27:43;17.88;;;12.43;;
47784;SDS011;35233;55.686;37.848;2022-12-29T06:30:09;16.38;;;11.52;;
47784;SDS011;35233;55.686;37.848;2022-12-29T06:32:36;16.50;;;11.30;;
47784;SDS011;35233;55.686;37.848;2022-12-29T06:35:02;19.08;;;11.90;;
47784;SDS011;35233;55.686;37.848;2022-12-29T06:37:31;18.10;;;11.63;;
47784;SDS011;35233;55.686;37.848;2022-12-29T06:39:57;18.10;;;11.63;;
47784;SDS011;35233;55.686;37.848;2022-12-29T06:42:29;15.98;;;11.10;;
47784;SDS011;35233;55.686;37.848;2022-12-29T06:44:54;15.65;;;10.63;;
47784;SDS011;35233;55.686;37.848;2022-12-29T06:47:34;18.55;;;10.85;;
47784;SDS011;35233;55.686;37.848;2022-12-29T06:50:00;15.88;;;10.52;;
47784;SDS011;35233;55.686;37.848;2022-12-29T06:52:27;16.08;;;10.95;;
47784;SDS011;35233;55.686;37.848;2022-12-29T06:55:05;17.27;;;11.85;;
47784;SDS011;35233;55.686;37.848;2022-12-29T06:57:31;16.10;;;10.68;;
47784;SDS011;35233;55.686;37.848;2022-12-29T06:59:56;17.85;;;10.95;;
47784;SDS011;35233;55.686;37.848;2022-12-29T07:02:22;16.38;;;10.55;;
47784;SDS011;35233;55.686;37.848;2022-12-29T07:04:50;18.88;;;11.38;;
47784;SDS011;35233;55.686;37.848;2022-12-29T07:07:17;21.48;;;12.50;;
47784;SDS011;35233;55.686;37.848;2022-12-29T07:09:44;16.00;;;11.38;;
47784;SDS011;35233;55.686;37.848;2022-12-29T07:12:09;17.08;;;11.77;;
47784;SDS011;35233;55.686;37.848;2022-12-29T07:14:35;17.15;;;10.65;;
47784;SDS011;35233;55.686;37.848;2022-12-29T07:17:01;16.73;;;10.88;;
47784;SDS011;35233;55.686;37.848;2022-12-29T07:19:30;17.15;;;11.45;;
47784;SDS011;35233;55.686;37.848;2022-12-29T07:21:56;17.00;;;11.20;;
47784;SDS011;35233;55.686;37.848;2022-12-29T07:24:22;15.20;;;10.32;;
47784;SDS011;35233;55.686;37.848;2022-12-29T07:26:47;16.13;;;11.38;;
47784;SDS011;35233;55.686;37.848;2022-12-29T07:29:13;19.10;;;11.55;;
47784;SDS011;35233;55.686;37.848;2022-12-29T07:31:38;17.25;;;11.57;;
47784;SDS011;35233;55.686;37.848;2022-12-29T07:34:04;17.90;;;11.65;;
47784;SDS011;35233;55.686;37.848;2022-12-29T07:36:29;20.45;;;12.75;;
47784;SDS011;35233;55.686;37.848;2022-12-29T07:38:55;21.52;;;12.48;;
47784;SDS011;35233;55.686;37.848;2022-12-29T07:41:20;19.83;;;13.07;;
47784;SDS011;35233;55.686;37.848;2022-12-29T07:43:46;21.00;;;13.38;;
47784;SDS011;35233;55.686;37.848;2022-12-29T07:46:13;20.52;;;13.98;;
47784;SDS011;35233;55.686;37.848;2022-12-29T07:48:39;20.33;;;14.32;;
47784;SDS011;35233;55.686;37.848;2022-12-29T07:51:04;21.42;;;13.55;;
47784;SDS011;35233;55.686;37.848;2022-12-29T07:53:30;21.65;;;14.13;;
47784;SDS011;35233;55.686;37.848;2022-12-29T07:55:55;20.65;;;14.55;;
47784;SDS011;35233;55.686;37.848;2022-12-29T07:58:21;22.48;;;14.93;;
47784;SDS011;35233;55.686;37.848;2022-12-29T08:00:46;22.85;;;15.75;;
47784;SDS011;35233;55.686;37.848;2022-12-29T08:03:12;25.13;;;17.08;;
47784;SDS011;35233;55.686;37.848;2022-12-29T08:05:37;26.50;;;18.08;;
47784;SDS011;35233;55.686;37.848;2022-12-29T08:08:03;28.80;;;19.27;;
47784;SDS011;35233;55.686;37.848;2022-12-29T08:10:29;29.38;;;19.52;;
47784;SDS011;35233;55.686;37.848;2022-12-29T08:12:54;31.92;;;22.10;;
47784;SDS011;35233;55.686;37.848;2022-12-29T08:15:20;32.30;;;21.88;;
47784;SDS011;35233;55.686;37.848;2022-12-29T08:17:45;32.10;;;22.70;;
47784;SDS011;35233;55.686;37.848;2022-12-29T08:20:11;30.83;;;21.92;;
47784;SDS011;35233;55.686;37.848;2022-12-29T08:22:36;32.95;;;22.33;;
47784;SDS011;35233;55.686;37.848;2022-12-29T08:25:02;33.75;;;23.58;;
47784;SDS011;35233;55.686;37.848;2022-12-29T08:27:28;33.20;;;23.13;;
47784;SDS011;35233;55.686;37.848;2022-12-29T08:29:54;34.70;;;23.20;;
47784;SDS011;35233;55.686;37.848;2022-12-29T08:32:19;33.60;;;23.17;;
47784;SDS011;35233;55.686;37.848;2022-12-29T08:34:45;29.77;;;20.73;;
47784;SDS011;35233;55.686;37.848;2022-12-29T08:37:11;31.73;;;20.80;;
47784;SDS011;35233;55.686;37.848;2022-12-29T08:39:36;28.67;;;19.83;;
47784;SDS011;35233;55.686;37.848;2022-12-29T08:42:05;30.92;;;18.48;;
47784;SDS011;35233;55.686;37.848;2022-12-29T08:44:31;27.67;;;18.25;;
47784;SDS011;35233;55.686;37.848;2022-12-29T08:46:56;27.40;;;17.48;;
47784;SDS011;35233;55.686;37.848;2022-12-29T08:49:22;25.50;;;18.33;;
47784;SDS011;35233;55.686;37.848;2022-12-29T08:51:50;25.63;;;18.13;;
47784;SDS011;35233;55.686;37.848;2022-12-29T08:54:48;23.90;;;16.90;;
47784;SDS011;35233;55.686;37.848;2022-12-29T08:57:13;23.67;;;16.05;;
47784;SDS011;35233;55.686;37.848;2022-12-29T08:59:39;26.63;;;17.40;;
47784;SDS011;35233;55.686;37.848;2022-12-29T09:02:04;22.10;;;16.02;;
47784;SDS011;35233;55.686;37.848;2022-12-29T09:04:30;21.02;;;15.25;;
47784;SDS011;35233;55.686;37.848;2022-12-29T09:06:55;23.80;;;16.58;;
47784;SDS011;35233;55.686;37.848;2022-12-29T09:09:21;21.10;;;15.30;;
47784;SDS011;35233;55.686;37.848;2022-12-29T09:11:47;21.10;;;15.15;;
47784;SDS011;35233;55.686;37.848;2022-12-29T09:14:12;20.58;;;14.35;;
47784;SDS011;35233;55.686;37.848;2022-12-29T09:16:38;21.17;;;14.63;;
47784;SDS011;35233;55.686;37.848;2022-12-29T09:19:04;21.50;;;14.70;;
47784;SDS011;35233;55.686;37.848;2022-12-29T09:21:30;18.48;;;13.68;;
47784;SDS011;35233;55.686;37.848;2022-12-29T09:23:56;18.90;;;13.43;;
47784;SDS011;35233;55.686;37.848;2022-12-29T09:26:21;18.80;;;13.23;;
47784;SDS011;35233;55.686;37.848;2022-12-29T09:28:47;18.58;;;13.00;;
47784;SDS011;35233;55.686;37.848;2022-12-29T09:31:13;17.60;;;12.60;;
47784;SDS011;35233;55.686;37.848;2022-12-29T09:33:38;15.73;;;12.02;;
47784;SDS011;35233;55.686;37.848;2022-12-29T09:36:10;17.30;;;12.10;;
47784;SDS011;35233;55.686;37.848;2022-12-29T09:38:35;15.57;;;12.02;;
47784;SDS011;35233;55.686;37.848;2022-12-29T09:41:05;17.25;;;11.30;;
47784;SDS011;35233;55.686;37.848;2022-12-29T09:43:48;15.90;;;11.35;;
47784;SDS011;35233;55.686;37.848;2022-12-29T09:46:35;17.40;;;11.18;;
47784;SDS011;35233;55.686;37.848;2022-12-29T09:49:56;15.32;;;10.82;;
47784;SDS011;35233;55.686;37.848;2022-12-29T09:52:32;16.33;;;11.55;;
47784;SDS011;35233;55.686;37.848;2022-12-29T09:57:37;12.32;;;9.63;;
47784;SDS011;35233;55.686;37.848;2022-12-29T10:00:15;14.07;;;9.90;;
47784;SDS011;35233;55.686;37.848;2022-12-29T10:02:46;14.93;;;10.55;;
47784;SDS011;35233;55.686;37.848;2022-12-29T10:05:17;14.50;;;9.88;;
47784;SDS011;35233;55.686;37.848;2022-12-29T10:10:35;11.95;;;8.63;;
47784;SDS011;35233;55.686;37.848;2022-12-29T10:13:13;12.38;;;9.20;;
47784;SDS011;35233;55.686;37.848;2022-12-29T10:15:54;13.05;;;8.52;;
47784;SDS011;35233;55.686;37.848;2022-12-29T10:21:22;11.20;;;8.30;;
47784;SDS011;35233;55.686;37.848;2022-12-29T10:23:56;11.88;;;8.43;;
47784;SDS011;35233;55.686;37.848;2022-12-29T10:26:28;11.02;;;8.32;;
47784;SDS011;35233;55.686;37.848;2022-12-29T10:29:02;11.85;;;7.88;;
47784;SDS011;35233;55.686;37.848;2022-12-29T10:31:37;12.93;;;8.02;;
47784;SDS011;35233;55.686;37.848;2022-12-29T10:34:11;11.57;;;7.97;;
47784;SDS011;35233;55.686;37.848;2022-12-29T10:36:51;12.05;;;7.95;;
47784;SDS011;35233;55.686;37.848;2022-12-29T10:39:30;8.95;;;6.60;;
47784;SDS011;35233;55.686;37.848;2022-12-29T10:44:47;10.07;;;7.22;;
47784;SDS011;35233;55.686;37.848;2022-12-29T10:47:14;10.50;;;7.45;;
47784;SDS011;35233;55.686;37.848;2022-12-29T10:49:47;11.10;;;7.00;;
47784;SDS011;35233;55.686;37.848;2022-12-29T10:52:14;11.10;;;6.63;;
47784;SDS011;35233;55.686;37.848;2022-12-29T10:57:36;9.73;;;7.35;;
47784;SDS011;35233;55.686;37.848;2022-12-29T11:03:01;11.10;;;6.95;;
47784;SDS011;35233;55.686;37.848;2022-12-29T11:08:16;10.77;;;6.60;;
47784;SDS011;35233;55.686;37.848;2022-12-29T11:10:45;10.20;;;6.05;;
47784;SDS011;35233;55.686;37.848;2022-12-29T11:15:58;9.98;;;6.50;;
47784;SDS011;35233;55.686;37.848;2022-12-29T11:21:07;10.35;;;6.50;;
47784;SDS011;35233;55.686;37.848;2022-12-29T11:23:59;10.25;;;6.32;;
47784;SDS011;35233;55.686;37.848;2022-12-29T11:26:29;9.48;;;5.93;;
47784;SDS011;35233;55.686;37.848;2022-12-29T11:31:31;10.38;;;6.03;;
47784;SDS011;35233;55.686;37.848;2022-12-29T11:36:50;9.48;;;5.90;;
47784;SDS011;35233;55.686;37.848;2022-12-29T11:39:36;9.10;;;5.80;;
47784;SDS011;35233;55.686;37.848;2022-12-29T11:42:06;10.15;;;5.93;;
47784;SDS011;35233;55.686;37.848;2022-12-29T11:44:42;8.00;;;4.93;;
47784;SDS011;35233;55.686;37.848;2022-12-29T11:47:10;8.35;;;5.88;;
47784;SDS011;35233;55.686;37.848;2022-12-29T11:49:48;9.38;;;5.10;;
47784;SDS011;35233;55.686;37.848;2022-12-29T11:52:15;7.60;;;4.80;;
47784;SDS011;35233;55.686;37.848;2022-12-29T11:54:45;7.97;;;5.35;;
47784;SDS011;35233;55.686;37.848;2022-12-29T11:57:14;7.53;;;5.30;;
47784;SDS011;35233;55.686;37.848;2022-12-29T11:59:49;7.18;;;5.20;;
47784;SDS011;35233;55.686;37.848;2022-12-29T12:05:05;7.13;;;4.83;;
47784;SDS011;35233;55.686;37.848;2022-12-29T12:10:10;6.93;;;4.50;;
47784;SDS011;35233;55.686;37.848;2022-12-29T12:15:17;6.30;;;4.93;;
47784;SDS011;35233;55.686;37.848;2022-12-29T12:20:35;6.55;;;4.63;;
47784;SDS011;35233;55.686;37.848;2022-12-29T12:25:56;6.22;;;4.20;;
47784;SDS011;35233;55.686;37.848;2022-12-29T12:28:33;6.20;;;4.60;;
47784;SDS011;35233;55.686;37.848;2022-12-29T12:31:06;6.38;;;4.60;;
47784;SDS011;35233;55.686;37.848;2022-12-29T12:33:47;5.68;;;4.22;;
47784;SDS011;35233;55.686;37.848;2022-12-29T12:44:12;6.10;;;4.07;;
47784;SDS011;35233;55.686;37.848;2022-12-29T12:50:03;7.20;;;4.25;;
47784;SDS011;35233;55.686;37.848;2022-12-29T13:01:10;6.72;;;4.20;;
47784;SDS011;35233;55.686;37.848;2022-12-29T13:15:04;5.70;;;4.05;;
47784;SDS011;35233;55.686;37.848;2022-12-29T13:28:46;7.80;;;4.90;;
47784;SDS011;35233;55.686;37.848;2022-12-29T13:31:30;8.27;;;4.90;;
47784;SDS011;35233;55.686;37.848;2022-12-29T13:36:53;7.30;;;4.82;;
47784;SDS011;35233;55.686;37.848;2022-12-29T13:39:23;7.85;;;4.70;;
47784;SDS011;35233;55.686;37.848;2022-12-29T13:41:56;9.18;;;4.72;;
47784;SDS011;35233;55.686;37.848;2022-12-29T13:44:43;8.32;;;5.32;;
47784;SDS011;35233;55.686;37.848;2022-12-29T13:47:21;8.70;;;5.05;;
47784;SDS011;35233;55.686;37.848;2022-12-29T13:49:50;7.90;;;5.20;;
47784;SDS011;35233;55.686;37.848;2022-12-29T13:54:51;7.85;;;5.57;;
47784;SDS011;35233;55.686;37.848;2022-12-29T14:00:20;8.25;;;5.55;;
47784;SDS011;35233;55.686;37.848;2022-12-29T14:03:09;8.23;;;5.53;;
47784;SDS011;35233;55.686;37.848;2022-12-29T14:05:42;7.43;;;4.93;;
47784;SDS011;35233;55.686;37.848;2022-12-29T14:08:27;8.30;;;5.05;;
47784;SDS011;35233;55.686;37.848;2022-12-29T14:10:52;7.53;;;5.35;;
47784;SDS011;35233;55.686;37.848;2022-12-29T14:13:19;7.68;;;4.85;;
47784;SDS011;35233;55.686;37.848;2022-12-29T14:15:56;8.38;;;5.07;;
47784;SDS011;35233;55.686;37.848;2022-12-29T14:18:24;8.48;;;5.20;;
47784;SDS011;35233;55.686;37.848;2022-12-29T14:23:39;7.40;;;4.53;;
47784;SDS011;35233;55.686;37.848;2022-12-29T14:28:34;6.32;;;4.88;;
47784;SDS011;35233;55.686;37.848;2022-12-29T14:33:40;8.70;;;5.38;;
47784;SDS011;35233;55.686;37.848;2022-12-29T14:39:03;7.70;;;5.00;;
47784;SDS011;35233;55.686;37.848;2022-12-29T14:41:48;7.07;;;5.28;;
47784;SDS011;35233;55.686;37.848;2022-12-29T14:44:48;7.20;;;5.00;;
47784;SDS011;35233;55.686;37.848;2022-12-29T14:47:27;7.50;;;5.07;;
47784;SDS011;35233;55.686;37.848;2022-12-29T14:49:56;8.82;;;5.18;;
47784;SDS011;35233;55.686;37.848;2022-12-29T14:52:49;7.75;;;5.28;;
47784;SDS011;35233;55.686;37.848;2022-12-29T14:57:53;9.10;;;5.95;;
47784;SDS011;35233;55.686;37.848;2022-12-29T15:00:27;8.25;;;5.53;;
47784;SDS011;35233;55.686;37.848;2022-12-29T15:05:44;9.98;;;6.00;;
47784;SDS011;35233;55.686;37.848;2022-12-29T15:08:11;7.35;;;5.60;;
47784;SDS011;35233;55.686;37.848;2022-12-29T15:10:40;12.15;;;6.20;;
47784;SDS011;35233;55.686;37.848;2022-12-29T15:13:15;9.13;;;6.00;;
47784;SDS011;35233;55.686;37.848;2022-12-29T15:15:43;11.10;;;6.43;;
47784;SDS011;35233;55.686;37.848;2022-12-29T15:18:21;10.82;;;6.22;;
47784;SDS011;35233;55.686;37.848;2022-12-29T15:20:52;9.43;;;6.13;;
47784;SDS011;35233;55.686;37.848;2022-12-29T15:23:21;8.90;;;6.03;;
47784;SDS011;35233;55.686;37.848;2022-12-29T15:25:50;9.75;;;6.40;;
47784;SDS011;35233;55.686;37.848;2022-12-29T15:28:19;11.65;;;6.55;;
47784;SDS011;35233;55.686;37.848;2022-12-29T15:30:53;11.02;;;6.80;;
47784;SDS011;35233;55.686;37.848;2022-12-29T15:33:21;10.35;;;6.65;;
47784;SDS011;35233;55.686;37.848;2022-12-29T15:35:51;9.10;;;6.43;;
47784;SDS011;35233;55.686;37.848;2022-12-29T15:38:22;9.18;;;5.93;;
47784;SDS011;35233;55.686;37.848;2022-12-29T15:43:25;10.40;;;6.35;;
47784;SDS011;35233;55.686;37.848;2022-12-29T15:46:02;10.73;;;6.68;;
47784;SDS011;35233;55.686;37.848;2022-12-29T15:48:28;9.38;;;5.88;;
47784;SDS011;35233;55.686;37.848;2022-12-29T15:50:54;11.32;;;6.80;;
47784;SDS011;35233;55.686;37.848;2022-12-29T15:53:24;8.40;;;6.10;;
47784;SDS011;35233;55.686;37.848;2022-12-29T15:55:54;10.68;;;6.20;;
47784;SDS011;35233;55.686;37.848;2022-12-29T15:58:50;13.13;;;6.68;;
47784;SDS011;35233;55.686;37.848;2022-12-29T16:01:18;9.32;;;6.50;;
47784;SDS011;35233;55.686;37.848;2022-12-29T16:03:44;10.80;;;6.18;;
47784;SDS011;35233;55.686;37.848;2022-12-29T16:06:21;9.73;;;6.82;;
47784;SDS011;35233;55.686;37.848;2022-12-29T16:11:33;11.73;;;6.60;;
47784;SDS011;35233;55.686;37.848;2022-12-29T16:14:01;10.23;;;6.93;;
47784;SDS011;35233;55.686;37.848;2022-12-29T16:16:31;10.65;;;7.03;;
47784;SDS011;35233;55.686;37.848;2022-12-29T16:19:09;11.32;;;6.93;;
47784;SDS011;35233;55.686;37.848;2022-12-29T16:21:44;13.77;;;7.25;;
47784;SDS011;35233;55.686;37.848;2022-12-29T16:24:17;12.63;;;7.75;;
47784;SDS011;35233;55.686;37.848;2022-12-29T16:26:49;11.70;;;7.35;;
47784;SDS011;35233;55.686;37.848;2022-12-29T16:29:27;14.07;;;7.35;;
47784;SDS011;35233;55.686;37.848;2022-12-29T16:31:55;11.63;;;7.40;;
47784;SDS011;35233;55.686;37.848;2022-12-29T16:39:32;11.68;;;7.13;;
47784;SDS011;35233;55.686;37.848;2022-12-29T16:42:00;11.77;;;6.93;;
47784;SDS011;35233;55.686;37.848;2022-12-29T16:44:46;10.65;;;6.97;;
47784;SDS011;35233;55.686;37.848;2022-12-29T16:49:38;11.20;;;7.13;;
47784;SDS011;35233;55.686;37.848;2022-12-29T16:52:38;13.77;;;7.63;;
47784;SDS011;35233;55.686;37.848;2022-12-29T16:54:59;11.45;;;7.82;;
47784;SDS011;35233;55.686;37.848;2022-12-29T16:57:31;11.88;;;7.88;;
47784;SDS011;35233;55.686;37.848;2022-12-29T17:00:17;11.88;;;7.82;;
47784;SDS011;35233;55.686;37.848;2022-12-29T17:02:45;13.35;;;7.85;;
47784;SDS011;35233;55.686;37.848;2022-12-29T17:05:15;13.90;;;8.55;;
47784;SDS011;35233;55.686;37.848;2022-12-29T17:07:42;12.55;;;8.50;;
47784;SDS011;35233;55.686;37.848;2022-12-29T17:10:08;13.00;;;8.35;;
47784;SDS011;35233;55.686;37.848;2022-12-29T17:12:34;13.93;;;8.13;;
47784;SDS011;35233;55.686;37.848;2022-12-29T17:15:05;12.02;;;8.30;;
47784;SDS011;35233;55.686;37.848;2022-12-29T17:17:43;14.07;;;9.23;;
47784;SDS011;35233;55.686;37.848;2022-12-29T17:20:27;14.18;;;9.18;;
47784;SDS011;35233;55.686;37.848;2022-12-29T17:22:55;14.95;;;8.93;;